createdAt,value
2022-12-13T00:02:00.412Z,10.93
2022-12-13T00:04:28.631Z,12.57
2022-12-13T00:06:56.974Z,11.23
2022-12-13T00:09:25.499Z,11.35
2022-12-13T00:11:55.054Z,11.43
2022-12-13T00:14:23.287Z,11.40
2022-12-13T00:16:52.909Z,11.00
2022-12-13T00:19:21.100Z,11.05
2022-12-13T00:21:49.408Z,11.73
2022-12-13T00:24:17.541Z,13.45
2022-12-13T00:26:47.123Z,11.77
2022-12-13T00:29:15.850Z,11.90
2022-12-13T00:32:01.085Z,12.35
2022-12-13T00:34:30.133Z,11.02
2022-12-13T00:36:59.558Z,11.65
2022-12-13T00:39:28.393Z,10.77
2022-12-13T00:41:57.457Z,10.25
2022-12-13T00:44:26.021Z,10.93
2022-12-13T00:46:54.840Z,10.90
2022-12-13T00:49:24.112Z,11.50
2022-12-13T00:51:53.654Z,10.15
2022-12-13T00:54:21.773Z,10.70
2022-12-13T00:56:51.795Z,11.82
2022-12-13T00:59:21.048Z,17.40
2022-12-13T01:01:49.198Z,12.57
2022-12-13T01:04:18.377Z,45.10
2022-12-13T01:06:50.211Z,28.38
2022-12-13T01:09:21.980Z,14.77
2022-12-13T01:11:51.272Z,20.25
2022-12-13T01:14:19.782Z,15.85
2022-12-13T01:16:47.997Z,13.25
2022-12-13T01:19:17.517Z,15.68
2022-12-13T01:21:45.575Z,13.23
2022-12-13T01:24:14.171Z,14.90
2022-12-13T01:26:42.236Z,14.35
2022-12-13T01:29:11.923Z,13.57
2022-12-13T01:31:42.026Z,48.10
2022-12-13T01:34:15.656Z,19.02
2022-12-13T01:36:45.562Z,12.98
2022-12-13T01:39:16.655Z,13.70
2022-12-13T01:41:47.078Z,11.68
2022-12-13T01:44:52.981Z,12.70
2022-12-13T01:47:59.324Z,11.80
2022-12-13T01:50:36.404Z,16.05
2022-12-13T01:53:08.296Z,12.82
2022-12-13T01:55:41.667Z,12.25
2022-12-13T01:58:11.995Z,12.80
2022-12-13T02:00:44.034Z,10.80
2022-12-13T02:03:21.198Z,10.50
2022-12-13T02:06:07.213Z,12.35
2022-12-13T02:08:36.351Z,11.43
2022-12-13T02:11:08.134Z,10.38
2022-12-13T02:13:37.853Z,11.60
2022-12-13T02:16:12.860Z,9.80
2022-12-13T02:19:12.030Z,10.13
2022-12-13T02:22:00.404Z,10.20
2022-12-13T02:24:58.905Z,11.73
2022-12-13T02:28:02.258Z,10.73
2022-12-13T02:30:40.239Z,11.60
2022-12-13T02:33:24.345Z,10.57
2022-12-13T02:36:06.677Z,8.85
2022-12-13T02:38:50.367Z,10.23
2022-12-13T02:41:27.558Z,10.35
2022-12-13T02:44:22.161Z,10.00
2022-12-13T02:47:03.608Z,10.13
2022-12-13T02:49:39.066Z,10.27
2022-12-13T02:52:12.647Z,9.48
2022-12-13T02:54:42.863Z,10.75
2022-12-13T02:57:32.498Z,10.35
2022-12-13T03:00:05.977Z,8.85
2022-12-13T03:02:49.938Z,9.15
2022-12-13T03:05:54.876Z,11.40
2022-12-13T03:08:47.079Z,9.05
2022-12-13T03:11:20.367Z,9.57
2022-12-13T03:14:03.551Z,9.82
2022-12-13T03:16:44.241Z,9.30
2022-12-13T03:19:15.142Z,8.98
2022-12-13T03:21:49.190Z,8.65
2022-12-13T03:24:19.658Z,8.15
2022-12-13T03:26:51.264Z,9.20
2022-12-13T03:29:23.579Z,9.23
2022-12-13T03:31:54.319Z,8.82
2022-12-13T03:34:23.753Z,8.90
2022-12-13T03:36:53.531Z,8.48
2022-12-13T03:39:22.978Z,9.77
2022-12-13T03:41:52.947Z,9.38
2022-12-13T03:44:21.985Z,8.88
2022-12-13T03:46:50.482Z,8.27
2022-12-13T03:49:18.528Z,8.18
2022-12-13T03:51:46.943Z,9.13
2022-12-13T03:54:15.049Z,7.65
2022-12-13T03:56:43.391Z,7.93
2022-12-13T03:59:11.541Z,8.27
2022-12-13T04:01:39.990Z,8.98
2022-12-13T04:04:08.117Z,8.95
2022-12-13T04:06:37.812Z,7.82
2022-12-13T04:09:05.797Z,7.53
2022-12-13T04:11:52.628Z,7.70
2022-12-13T04:14:22.177Z,7.75
2022-12-13T04:16:53.694Z,6.85
2022-12-13T04:19:22.912Z,7.72
2022-12-13T04:21:54.678Z,7.82
2022-12-13T04:24:30.921Z,7.93
2022-12-13T04:27:02.000Z,7.80
2022-12-13T04:29:34.070Z,6.85
2022-12-13T04:32:25.920Z,7.70
2022-12-13T04:35:00.849Z,7.50
2022-12-13T04:37:31.330Z,7.22
2022-12-13T04:40:00.546Z,8.23
2022-12-13T04:42:30.208Z,7.88
2022-12-13T04:44:58.298Z,8.90
2022-12-13T04:47:26.610Z,7.93
2022-12-13T04:49:55.380Z,7.97
2022-12-13T04:52:23.798Z,8.30
2022-12-13T04:54:55.584Z,7.72
2022-12-13T04:57:25.718Z,7.35
2022-12-13T04:59:53.837Z,8.60
2022-12-13T05:02:24.461Z,7.18
2022-12-13T05:04:53.607Z,8.10
2022-12-13T05:07:25.956Z,9.55
2022-12-13T05:09:54.388Z,8.68
2022-12-13T05:12:25.312Z,9.10
2022-12-13T05:14:54.306Z,8.82
2022-12-13T05:17:22.736Z,8.32
2022-12-13T05:19:50.677Z,6.88
2022-12-13T05:22:20.756Z,8.30
2022-12-13T05:24:49.542Z,7.25
2022-12-13T05:27:24.640Z,7.53
2022-12-13T05:30:04.152Z,8.80
2022-12-13T05:32:44.166Z,7.00
2022-12-13T05:35:22.358Z,7.78
2022-12-13T05:37:54.502Z,7.82
2022-12-13T05:40:24.832Z,7.38
2022-12-13T05:43:01.209Z,7.60
2022-12-13T05:45:31.403Z,8.23
2022-12-13T05:48:00.230Z,8.10
2022-12-13T05:50:28.157Z,6.85
2022-12-13T05:52:57.203Z,8.45
2022-12-13T05:55:25.214Z,8.60
2022-12-13T05:57:53.566Z,9.23
2022-12-13T06:00:30.996Z,8.63
2022-12-13T06:03:01.918Z,6.90
2022-12-13T06:05:31.448Z,7.50
2022-12-13T06:08:00.819Z,8.73
2022-12-13T06:10:34.018Z,8.38
2022-12-13T06:13:21.674Z,7.53
2022-12-13T06:16:01.391Z,6.85
2022-12-13T06:18:32.741Z,7.45
2022-12-13T06:21:03.662Z,8.20
2022-12-13T06:23:34.019Z,7.35
2022-12-13T06:26:07.367Z,8.13
2022-12-13T06:28:36.019Z,7.60
2022-12-13T06:31:05.279Z,6.90
2022-12-13T06:33:37.296Z,7.15
2022-12-13T06:41:11.747Z,5.85
2022-12-13T06:43:47.810Z,6.95
2022-12-13T06:46:17.448Z,6.93
2022-12-13T06:48:46.123Z,6.82
2022-12-13T06:51:22.773Z,7.18
2022-12-13T06:53:52.998Z,7.22
2022-12-13T06:56:21.125Z,6.40
2022-12-13T06:58:49.779Z,7.03
2022-12-13T07:01:24.192Z,10.75
2022-12-13T07:03:58.014Z,7.65
2022-12-13T07:06:27.262Z,6.93
2022-12-13T07:08:58.383Z,6.32
2022-12-13T07:11:29.396Z,6.50
2022-12-13T07:13:58.054Z,6.57
2022-12-13T07:16:28.822Z,6.45
2022-12-13T07:19:01.219Z,6.82
2022-12-13T07:21:30.988Z,6.30
2022-12-13T07:23:59.475Z,6.13
2022-12-13T07:26:27.644Z,6.38
2022-12-13T07:28:56.345Z,7.40
2022-12-13T07:31:25.920Z,6.70
2022-12-13T07:33:54.944Z,7.75
2022-12-13T07:36:24.751Z,7.10
2022-12-13T07:38:57.963Z,9.13
2022-12-13T07:41:27.552Z,8.17
2022-12-13T07:43:56.757Z,8.32
2022-12-13T07:46:32.606Z,8.13
2022-12-13T07:49:04.360Z,8.38
2022-12-13T07:51:35.490Z,9.52
2022-12-13T07:54:06.891Z,8.60
2022-12-13T07:56:36.583Z,8.45
2022-12-13T07:59:04.943Z,9.25
2022-12-13T08:01:37.073Z,8.57
2022-12-13T08:04:06.824Z,8.38
2022-12-13T08:06:37.867Z,9.02
2022-12-13T08:09:06.638Z,9.20
2022-12-13T08:11:34.840Z,9.10
2022-12-13T08:14:03.305Z,8.95
2022-12-13T08:16:31.335Z,9.65
2022-12-13T08:19:03.087Z,9.57
2022-12-13T08:21:57.982Z,10.13
2022-12-13T08:24:31.175Z,9.10
2022-12-13T08:27:02.446Z,10.05
2022-12-13T08:29:34.219Z,10.18
2022-12-13T08:32:06.121Z,9.25
2022-12-13T08:34:34.541Z,9.32
2022-12-13T08:37:03.994Z,10.18
2022-12-13T08:39:37.603Z,10.48
2022-12-13T08:42:14.640Z,11.85
2022-12-13T08:44:47.805Z,9.82
2022-12-13T08:47:24.420Z,9.77
2022-12-13T08:50:02.015Z,10.85
2022-12-13T08:52:40.070Z,7.82
2022-12-13T08:55:14.925Z,9.82
2022-12-13T08:57:43.855Z,8.55
2022-12-13T09:00:15.135Z,9.10
2022-12-13T09:02:43.759Z,8.07
2022-12-13T09:05:32.946Z,8.38
2022-12-13T09:08:24.867Z,8.32
2022-12-13T09:10:59.394Z,7.22
2022-12-13T09:13:33.682Z,7.10
2022-12-13T09:16:13.840Z,7.85
2022-12-13T09:18:43.071Z,8.77
2022-12-13T09:21:22.497Z,8.88
2022-12-13T09:24:02.497Z,9.23
2022-12-13T09:26:37.688Z,8.10
2022-12-13T09:29:11.709Z,8.95
2022-12-13T09:31:41.454Z,8.43
2022-12-13T09:34:11.013Z,8.27
2022-12-13T09:36:39.599Z,7.20
2022-12-13T09:39:07.697Z,7.40
2022-12-13T09:41:41.422Z,6.85
2022-12-13T09:44:32.153Z,8.75
2022-12-13T09:47:14.095Z,6.95
2022-12-13T09:49:51.726Z,6.82
2022-12-13T09:52:25.672Z,6.25
2022-12-13T09:54:57.296Z,6.43
2022-12-13T09:57:33.912Z,7.25
2022-12-13T10:00:11.345Z,5.88
2022-12-13T10:02:52.195Z,6.38
2022-12-13T10:05:33.879Z,5.18
2022-12-13T10:08:37.495Z,5.47
2022-12-13T10:11:05.684Z,6.43
2022-12-13T10:13:42.507Z,6.10
2022-12-13T10:16:26.512Z,6.38
2022-12-13T10:19:28.856Z,6.20
2022-12-13T10:22:02.839Z,8.03
2022-12-13T10:25:00.399Z,6.32
2022-12-13T10:27:36.805Z,6.45
2022-12-13T10:30:12.792Z,6.22
2022-12-13T10:32:55.284Z,5.25
2022-12-13T10:35:30.733Z,6.38
2022-12-13T10:38:31.608Z,5.43
2022-12-13T10:41:01.645Z,6.63
2022-12-13T10:43:33.335Z,6.38
2022-12-13T10:46:04.341Z,5.80
2022-12-13T10:48:40.225Z,8.13
2022-12-13T10:51:12.645Z,6.07
2022-12-13T10:53:48.361Z,6.40
2022-12-13T10:56:24.063Z,6.97
2022-12-13T10:59:23.338Z,6.03
2022-12-13T11:01:52.440Z,6.25
2022-12-13T11:04:28.465Z,6.72
2022-12-13T11:07:02.906Z,6.43
2022-12-13T11:09:38.650Z,6.57
2022-12-13T11:12:29.082Z,5.80
2022-12-13T11:15:03.844Z,5.75
2022-12-13T11:17:38.048Z,6.68
2022-12-13T11:22:39.509Z,7.28
2022-12-13T11:25:31.551Z,7.63
2022-12-13T11:28:27.878Z,11.32
2022-12-13T11:31:04.774Z,8.20
2022-12-13T11:34:04.664Z,7.68
2022-12-13T11:36:56.525Z,6.68
2022-12-13T11:39:27.614Z,8.70
2022-12-13T11:42:22.888Z,7.32
2022-12-13T11:45:08.286Z,6.60
2022-12-13T11:48:04.371Z,6.75
2022-12-13T11:50:44.242Z,7.68
2022-12-13T11:53:32.085Z,7.88
2022-12-13T11:56:12.016Z,6.70
2022-12-13T11:59:05.865Z,8.90
2022-12-13T12:02:05.058Z,6.88
2022-12-13T12:04:58.099Z,7.13
2022-12-13T12:08:05.054Z,7.57
2022-12-13T12:10:45.701Z,6.90
2022-12-13T12:13:33.718Z,9.35
2022-12-13T12:16:32.440Z,7.93
2022-12-13T12:19:02.389Z,8.32
2022-12-13T12:22:12.292Z,8.40
2022-12-13T12:24:54.226Z,7.63
2022-12-13T12:27:48.188Z,7.07
2022-12-13T12:30:23.762Z,7.55
2022-12-13T12:33:05.605Z,7.75
2022-12-13T12:35:53.625Z,8.13
2022-12-13T12:38:52.551Z,7.22
2022-12-13T12:41:30.254Z,7.82
2022-12-13T12:44:30.803Z,8.38
2022-12-13T12:47:49.032Z,8.07
2022-12-13T12:50:42.855Z,7.68
2022-12-13T12:53:30.473Z,7.38
2022-12-13T12:55:58.378Z,7.57
2022-12-13T12:58:37.466Z,8.27
2022-12-13T13:01:14.790Z,8.05
2022-12-13T13:03:44.985Z,7.13
2022-12-13T13:06:22.151Z,8.80
2022-12-13T13:08:56.843Z,9.57
2022-12-13T13:11:28.917Z,9.30
2022-12-13T13:14:21.874Z,8.70
2022-12-13T13:16:50.030Z,9.82
2022-12-13T13:19:25.755Z,8.55
2022-12-13T13:22:02.082Z,9.52
2022-12-13T13:24:35.635Z,15.77
2022-12-13T13:27:09.756Z,10.88
2022-12-13T13:29:43.855Z,7.72
2022-12-13T13:32:12.361Z,8.10
2022-12-13T13:35:33.015Z,11.07
2022-12-13T13:38:25.389Z,8.52
2022-12-13T13:40:55.045Z,7.32
2022-12-13T13:43:32.899Z,8.05
2022-12-13T13:46:12.086Z,10.45
2022-12-13T13:48:40.736Z,7.50
2022-12-13T13:51:30.443Z,12.73
2022-12-13T13:54:20.053Z,16.55
2022-12-13T13:57:28.895Z,7.53
2022-12-13T14:00:18.297Z,7.63
2022-12-13T14:03:22.081Z,6.80
2022-12-13T14:06:36.232Z,8.55
2022-12-13T14:09:50.462Z,7.22
2022-12-13T14:12:42.663Z,6.72
2022-12-13T14:15:59.950Z,7.00
2022-12-13T14:19:05.103Z,6.35
2022-12-13T14:21:46.419Z,7.60
2022-12-13T14:24:30.562Z,9.23
2022-12-13T14:27:14.130Z,6.75
2022-12-13T14:29:57.628Z,7.35
2022-12-13T14:32:30.335Z,6.05
2022-12-13T14:35:25.586Z,6.45
2022-12-13T14:38:05.724Z,5.85
2022-12-13T14:40:37.194Z,6.13
2022-12-13T14:43:05.687Z,7.13
2022-12-13T14:45:37.226Z,6.03
2022-12-13T14:48:14.320Z,6.53
2022-12-13T14:50:45.245Z,5.50
2022-12-13T14:53:37.870Z,6.50
2022-12-13T14:56:28.740Z,6.50
2022-12-13T14:59:03.642Z,8.05
2022-12-13T15:01:35.645Z,6.93
2022-12-13T15:04:23.067Z,5.80
2022-12-13T15:07:06.694Z,7.00
2022-12-13T15:09:41.137Z,6.97
2022-12-13T15:12:24.302Z,6.22
2022-12-13T15:15:02.547Z,6.53
2022-12-13T15:17:36.430Z,6.82
2022-12-13T15:20:31.352Z,7.20
2022-12-13T15:23:48.625Z,10.73
2022-12-13T15:26:29.085Z,11.00
2022-12-13T15:29:10.277Z,7.65
2022-12-13T15:31:41.455Z,8.70
2022-12-13T15:34:30.870Z,9.27
2022-12-13T15:37:28.013Z,7.38
2022-12-13T15:40:08.018Z,7.63
2022-12-13T15:42:44.097Z,12.52
2022-12-13T15:45:22.988Z,7.65
2022-12-13T15:47:54.695Z,7.18
2022-12-13T15:50:31.314Z,7.18
2022-12-13T15:53:17.215Z,7.82
2022-12-13T15:55:47.025Z,6.90
2022-12-13T15:58:28.148Z,7.43
2022-12-13T16:00:57.268Z,10.05
2022-12-13T16:03:27.628Z,40.05
2022-12-13T16:05:57.931Z,31.10
2022-12-13T16:08:32.833Z,24.35
2022-12-13T16:11:02.508Z,11.63
2022-12-13T16:13:37.409Z,12.90
2022-12-13T16:16:28.419Z,10.10
2022-12-13T16:19:00.326Z,9.80
2022-12-13T16:21:30.259Z,14.40
2022-12-13T16:23:58.757Z,10.30
2022-12-13T16:26:29.779Z,9.45
2022-12-13T16:28:59.876Z,14.73
2022-12-13T16:31:36.170Z,13.65
2022-12-13T16:34:05.982Z,12.45
2022-12-13T16:36:34.861Z,15.52
2022-12-13T16:39:10.528Z,17.45
2022-12-13T16:41:42.919Z,10.68
2022-12-13T16:44:22.302Z,17.40
2022-12-13T16:47:11.403Z,12.75
2022-12-13T16:49:39.569Z,12.70
2022-12-13T16:52:08.529Z,10.27
2022-12-13T16:54:37.017Z,12.77
2022-12-13T16:57:05.117Z,28.27
2022-12-13T16:59:33.566Z,19.67
2022-12-13T17:02:01.682Z,11.63
2022-12-13T17:04:30.119Z,18.27
2022-12-13T17:06:58.185Z,11.77
2022-12-13T17:09:26.890Z,17.27
2022-12-13T17:11:55.060Z,11.95
2022-12-13T17:14:23.717Z,9.25
2022-12-13T17:16:51.836Z,11.80
2022-12-13T17:19:20.532Z,9.52
2022-12-13T17:21:49.326Z,9.93
2022-12-13T17:24:19.076Z,10.80
2022-12-13T17:26:54.831Z,8.07
2022-12-13T17:29:25.422Z,10.85
2022-12-13T17:31:53.758Z,16.88
2022-12-13T17:34:23.449Z,10.55
2022-12-13T17:36:51.551Z,9.52
2022-12-13T17:39:20.307Z,7.57
2022-12-13T17:41:55.094Z,15.38
2022-12-13T17:44:25.980Z,8.60
2022-12-13T17:46:55.724Z,9.25
2022-12-13T17:49:25.253Z,10.20
2022-12-13T17:51:54.737Z,11.60
2022-12-13T17:54:25.633Z,13.23
2022-12-13T17:56:54.702Z,12.73
2022-12-13T17:59:23.626Z,10.57
2022-12-13T18:01:52.003Z,9.15
2022-12-13T18:04:22.413Z,10.35
2022-12-13T18:06:52.485Z,9.32
2022-12-13T18:09:20.985Z,8.25
2022-12-13T18:11:49.111Z,9.48
2022-12-13T18:14:18.639Z,9.60
2022-12-13T18:16:47.063Z,9.77
2022-12-13T18:19:15.634Z,10.38
2022-12-13T18:21:43.944Z,9.50
2022-12-13T18:24:13.019Z,11.07
2022-12-13T18:26:41.228Z,9.90
2022-12-13T18:29:09.858Z,8.57
2022-12-13T18:31:38.583Z,8.95
2022-12-13T18:34:09.452Z,9.50
2022-12-13T18:36:39.991Z,9.35
2022-12-13T18:39:08.434Z,8.70
2022-12-13T18:41:36.644Z,7.90
2022-12-13T18:44:11.545Z,8.40
2022-12-13T18:46:44.752Z,8.27
2022-12-13T18:49:14.654Z,8.95
2022-12-13T18:51:43.025Z,9.27
2022-12-13T18:54:12.665Z,6.68
2022-12-13T18:56:41.228Z,7.50
2022-12-13T18:59:12.559Z,7.43
2022-12-13T19:01:40.766Z,9.95
2022-12-13T19:04:09.180Z,8.35
2022-12-13T19:06:37.400Z,7.90
2022-12-13T19:09:07.207Z,7.72
2022-12-13T19:11:35.549Z,9.23
2022-12-13T19:14:04.314Z,8.57
2022-12-13T19:16:32.644Z,9.68
2022-12-13T19:19:01.785Z,8.80
2022-12-13T19:21:29.941Z,9.73
2022-12-13T19:24:01.294Z,10.60
2022-12-13T19:26:31.879Z,9.02
2022-12-13T19:29:02.335Z,10.05
2022-12-13T19:31:32.569Z,10.85
2022-12-13T19:34:02.567Z,11.65
2022-12-13T19:36:32.431Z,10.23
2022-12-13T19:39:01.875Z,11.05
2022-12-13T19:41:32.438Z,11.68
2022-12-13T19:44:04.005Z,11.68
2022-12-13T19:46:33.435Z,9.93
2022-12-13T19:49:01.904Z,10.15
2022-12-13T19:51:35.939Z,12.30
2022-12-13T19:54:08.199Z,9.77
2022-12-13T19:56:36.740Z,10.45
2022-12-13T19:59:05.465Z,11.10
2022-12-13T20:01:33.671Z,11.48
2022-12-13T20:04:02.530Z,11.77
2022-12-13T20:06:30.744Z,11.52
2022-12-13T20:08:59.215Z,11.95
2022-12-13T20:11:27.875Z,10.45
2022-12-13T20:13:57.601Z,11.48
2022-12-13T20:16:27.766Z,11.35
2022-12-13T20:18:59.141Z,11.25
2022-12-13T20:21:28.660Z,12.38
2022-12-13T20:23:58.210Z,10.95
2022-12-13T20:26:29.196Z,11.13
2022-12-13T20:28:58.514Z,9.40
2022-12-13T20:31:32.215Z,12.38
2022-12-13T20:34:03.942Z,13.32
2022-12-13T20:36:32.103Z,14.40
2022-12-13T20:39:03.052Z,15.73
2022-12-13T20:41:34.015Z,16.30
2022-12-13T20:44:05.421Z,17.42
2022-12-13T20:46:34.367Z,15.23
2022-12-13T20:49:05.644Z,15.55
2022-12-13T20:51:35.245Z,15.35
2022-12-13T20:54:05.092Z,15.85
2022-12-13T20:56:37.389Z,15.98
2022-12-13T20:59:09.132Z,14.52
2022-12-13T21:01:40.137Z,15.20
2022-12-13T21:04:11.397Z,13.77
2022-12-13T21:06:42.614Z,14.85
2022-12-13T21:09:13.071Z,13.88
2022-12-13T21:11:44.564Z,13.32
2022-12-13T21:14:26.501Z,12.10
2022-12-13T21:17:00.127Z,11.02
2022-12-13T21:19:39.491Z,10.82
2022-12-13T21:22:08.367Z,9.18
2022-12-13T21:24:36.879Z,9.30
2022-12-13T21:27:06.034Z,9.55
2022-12-13T21:29:34.504Z,9.43
2022-12-13T21:32:03.255Z,8.23
2022-12-13T21:34:31.842Z,8.20
2022-12-13T21:37:00.780Z,8.15
2022-12-13T21:39:29.540Z,8.13
2022-12-13T21:41:58.528Z,8.05
2022-12-13T21:44:27.431Z,7.53
2022-12-13T21:47:13.202Z,8.15
2022-12-13T21:49:57.436Z,8.88
2022-12-13T21:52:49.911Z,7.57
2022-12-13T21:58:25.102Z,8.00
2022-12-13T22:00:53.942Z,8.63
2022-12-13T22:03:21.839Z,8.75
2022-12-13T22:05:50.160Z,9.27
2022-12-13T22:08:18.204Z,9.35
2022-12-13T22:11:05.248Z,8.88
2022-12-13T22:13:33.303Z,10.07
2022-12-13T22:16:01.691Z,9.63
2022-12-13T22:18:29.895Z,9.38
2022-12-13T22:20:59.363Z,10.48
2022-12-13T22:23:27.395Z,8.80
2022-12-13T22:25:56.142Z,9.27
2022-12-13T22:28:24.479Z,9.52
2022-12-13T22:30:54.074Z,8.60
2022-12-13T22:33:22.296Z,9.43
2022-12-13T22:35:50.716Z,8.75
2022-12-13T22:38:19.586Z,8.15
2022-12-13T22:40:48.223Z,8.77
2022-12-13T22:43:20.454Z,7.65
2022-12-13T22:45:49.384Z,7.60
2022-12-13T22:48:17.546Z,7.93
2022-12-13T22:50:45.972Z,7.45
2022-12-13T22:53:13.863Z,7.65
2022-12-13T22:55:42.244Z,5.95
2022-12-13T22:58:10.281Z,7.07
2022-12-13T23:00:38.709Z,6.60
2022-12-13T23:03:07.074Z,6.90
2022-12-13T23:05:35.984Z,6.95
2022-12-13T23:08:04.282Z,6.78
2022-12-13T23:10:51.040Z,6.75
2022-12-13T23:13:19.040Z,6.55
2022-12-13T23:15:49.497Z,6.38
2022-12-13T23:18:17.815Z,6.65
2022-12-13T23:20:46.106Z,7.03
2022-12-13T23:23:16.551Z,6.97
2022-12-13T23:25:45.000Z,6.32
2022-12-13T23:28:17.130Z,7.80
2022-12-13T23:30:45.521Z,6.68
2022-12-13T23:33:13.650Z,7.30
2022-12-13T23:35:42.016Z,6.63
2022-12-13T23:38:10.060Z,7.68
2022-12-13T23:40:38.553Z,6.85
2022-12-13T23:43:06.559Z,6.65
2022-12-13T23:45:34.882Z,6.35
2022-12-13T23:48:02.925Z,7.10
2022-12-13T23:50:31.407Z,6.30
2022-12-13T23:52:59.405Z,5.70
2022-12-13T23:55:27.887Z,6.55
2022-12-13T23:57:56.128Z,6.30
